CheckWX is a tool to help pilots better visualize weather data.  It is not intended as a substitute for an official pre-flight weather briefing.

23:54:04 UTC

KSPS TAF
Sheppard AFB / Wichita Falls Municipal Airport
Wichita Falls, Texas, USA
KSPS 052331Z 0600/0624 10006KT P6SM SCT050 BKN250 FM060100 02014KT P6SM BKN100 FM060400 05006KT P6SM BKN100 PROB30 0609/0615 3SM TSRA OVC025CB

Jul-6@
00:00 UTC

Jul-6 @ 00:00 UTC

Jul-6@
01:00 UTC

Jul-6 @ 01:00 UTC

TAF KSPS 052331Z 0600/0624 10006KT P6SM SCT050 BKN250

Expired

Wind
  • 100° at 6 KTS
Cloud Levels
  • Scattered at 5,000' AGL
  • Broken at 25,000' AGL

Jul-6@
01:00 UTC

Jul-6 @ 01:00 UTC

Jul-6@
04:00 UTC

Jul-6 @ 04:00 UTC

FM060100 02014KT P6SM BKN100

Expired

Wind
  • 020° at 14 KTS
Cloud Levels
  • Broken at 10,000' AGL

Jul-6@
04:00 UTC

Jul-6 @ 04:00 UTC

Jul-7@
00:00 UTC

Jul-7 @ 00:00 UTC

FM060400 05006KT P6SM BKN100

From

From Standard forecast or significant change

Wind
  • 050° at 6 KTS
Cloud Levels
  • Broken at 10,000' AGL

Jul-6@
09:00 UTC

Jul-6 @ 09:00 UTC

Jul-6@
15:00 UTC

Jul-6 @ 15:00 UTC

PROB30 0609/0615 3SM TSRA OVC025CB

Expired

Conditions
Thunderstorm, Rain
Cloud Levels
  • Overcast at 2,500' AGL